Weather at Orlando International Airport

Public forecast

Using degrees Fahrenheit for public forecast. Weather courtesy of forecast.io.

Current aviation weather report (METAR) for Orlando International Airport

Retrieved 2020/09/26 20:53 UTC (1 hour ago):

KMCO 262053Z VRB03KT 10SM FEW048 FEW250 33/22 A2993 RMK AO2 LTG DSNT E AND SW SLP135 T03330217 56016

Aviation forecast (TAF) for Orlando International Airport

Retrieved 2020/09/26 18:34 UTC (3 hours ago):

TAF KMCO 261731Z 2618/2724 33005KT P6SM VCSH SCT035 SCT250 FM262000 03008KT P6SM VCTS SCT030CB SCT060 FM270200 VRB02KT P6SM SCT050 SCT250 FM271400 10006KT P6SM SCT035 FM271800 12006KT P6SM VCSH SCT030 SCT250